Time;durP1;ratioP1;P1;durP2;ratioP2;P2;SDS_P1;SDS_P2;PMS_P1;PMS_P2;Temp;Humidity;BMP_temperature;BMP_pressure;BME280_temperature;BME280_humidity;BME280_pressure;Samples;Min_cycle;Max_cycle;Signal;HPM_P1;HPM_P2
2023/01/05 05:17:06;;;;;;;11.65;2.88;;;;;;;11.02;66.60;100845.91;5150721;27;20377;-72
2023/01/05 05:20:11;;;;;;;13.13;3.38;;;;;;;11.02;66.66;100846.72;5139520;27;20081;-74
2023/01/05 05:23:22;;;;;;;11.18;3.05;;;;;;;11.06;66.31;100847.44;5133474;27;20050;-72
2023/01/05 05:26:28;;;;;;;;;;;;;;;11.11;66.35;100850.69;5133136;27;20281;-74
2023/01/05 05:29:32;;;;;;;14.57;2.70;;;;;;;11.13;66.55;100856.66;5146434;27;19972;-72
2023/01/05 05:32:35;;;;;;;11.60;2.85;;;;;;;11.05;66.51;100858.84;5146747;27;20049;-71
2023/01/05 05:35:39;;;;;;;14.82;2.25;;;;;;;11.15;66.68;100846.97;5146024;27;20049;-73
2023/01/05 05:38:43;;;;;;;12.18;2.50;;;;;;;11.03;66.99;100864.13;5146099;27;20087;-73
2023/01/05 05:41:46;;;;;;;11.20;2.45;;;;;;;11.07;67.03;100873.53;5145470;27;20465;-71
2023/01/05 05:44:49;;;;;;;15.30;2.45;;;;;;;11.06;67.11;100871.81;5144440;27;20034;-72
2023/01/05 05:47:52;;;;;;;;;;;;;;;11.04;66.87;100876.31;5144529;27;20461;-71
2023/01/05 05:50:55;;;;;;;15.33;3.07;;;;;;;11.02;67.26;100880.75;5145841;27;19964;-71
2023/01/05 05:53:59;;;;;;;;;;;;;;;11.07;66.96;100880.50;5146476;27;20299;-71
2023/01/05 05:57:03;;;;;;;13.18;3.55;;;;;;;10.97;67.13;100889.75;5145101;27;19957;-71
2023/01/05 06:00:06;;;;;;;11.27;2.55;;;;;;;11.03;66.92;100900.75;5144678;27;20239;-71
2023/01/05 06:03:16;;;;;;;11.85;2.60;;;;;;;11.06;66.75;100898.00;5144683;27;20046;-71
2023/01/05 06:06:19;;;;;;;;;;;;;;;11.01;66.68;100893.88;5145195;27;20050;-71
2023/01/05 06:09:23;;;;;;;17.23;2.83;;;;;;;11.01;66.90;100907.84;5144563;27;19975;-71
2023/01/05 06:12:27;;;;;;;15.27;3.20;;;;;;;11.00;66.48;100921.84;5144173;27;20253;-71
2023/01/05 06:15:31;;;;;;;12.20;2.38;;;;;;;11.04;66.70;100919.91;5143710;27;20283;-71
2023/01/05 06:18:34;;;;;;;13.07;2.88;;;;;;;11.00;66.50;100921.00;5130832;27;20092;-71
2023/01/05 06:21:37;;;;;;;;;;;;;;;11.04;66.58;100917.31;5130812;27;20119;-71
2023/01/05 06:24:40;;;;;;;15.65;2.47;;;;;;;11.05;66.93;100932.09;5130663;27;19918;-71
2023/01/05 06:27:44;;;;;;;;;;;;;;;11.00;66.87;100937.53;5134616;27;20058;-72
2023/01/05 06:30:49;;;;;;;13.98;3.00;;;;;;;10.96;67.21;100929.91;5136001;27;19922;-70
2023/01/05 06:33:52;;;;;;;;;;;;;;;10.93;67.32;100936.13;5135094;27;20072;-70
2023/01/05 06:36:55;;;;;;;12.43;3.47;;;;;;;10.95;67.93;100934.31;5135102;27;19918;-70
2023/01/05 06:40:00;;;;;;;17.30;3.42;;;;;;;11.02;67.96;100937.47;5136219;27;20263;-70
2023/01/05 06:43:02;;;;;;;12.20;3.63;;;;;;;10.94;67.55;100959.63;5134954;27;20046;-70
2023/01/05 06:46:05;;;;;;;;;;;;;;;11.02;67.33;100948.78;5134426;27;20042;-70
2023/01/05 06:49:11;;;;;;;15.10;3.53;;;;;;;11.00;67.65;100950.63;5134253;27;20333;-70
2023/01/05 06:52:14;;;;;;;14.05;3.50;;;;;;;10.92;67.41;100951.00;5129242;27;20427;-70
2023/01/05 06:55:17;;;;;;;;;;;;;;;10.91;67.79;100944.06;5115510;27;20100;-70
2023/01/05 06:58:20;;;;;;;14.40;4.03;;;;;;;10.92;67.45;100956.22;5130193;27;20431;-70
2023/01/05 07:01:24;;;;;;;15.57;3.30;;;;;;;10.88;67.42;100965.16;5129088;27;20099;-70
2023/01/05 07:04:27;;;;;;;16.10;2.80;;;;;;;10.88;67.53;100961.66;5134129;27;20046;-70
2023/01/05 07:07:31;;;;;;;12.93;3.20;;;;;;;10.84;67.69;100967.97;5135491;27;20399;-71
2023/01/05 07:10:34;;;;;;;;;;;;;;;10.84;67.92;100950.50;5136167;27;20128;-70
2023/01/05 07:13:38;;;;;;;12.68;3.70;;;;;;;10.90;67.91;100963.28;5134898;27;19914;-71
2023/01/05 07:16:41;;;;;;;16.85;4.68;;;;;;;10.88;67.91;100988.69;5134408;27;20095;-71
2023/01/05 07:19:45;;;;;;;13.95;3.22;;;;;;;10.79;68.46;100983.88;5111264;27;20050;-71
2023/01/05 07:22:48;;;;;;;13.88;2.78;;;;;;;10.82;68.67;100996.81;5127076;27;20446;-71
2023/01/05 07:25:52;;;;;;;17.92;3.67;;;;;;;10.79;69.04;100988.25;5130438;27;20127;-71
2023/01/05 07:28:57;;;;;;;11.40;2.67;;;;;;;10.78;69.23;101000.47;5132476;27;20117;-71
2023/01/05 07:36:08;;;;;;;18.27;3.85;;;;;;;10.75;69.85;101005.84;5133248;27;20428;-71
2023/01/05 07:39:12;;;;;;;10.10;3.33;;;;;;;10.77;70.13;101006.63;5134261;27;20082;-71
2023/01/05 07:42:16;;;;;;;13.80;3.20;;;;;;;10.80;69.87;101011.72;5134305;27;20103;-71
2023/01/05 07:45:21;;;;;;;12.73;4.88;;;;;;;10.76;70.16;101020.63;5109685;27;20107;-71
2023/01/05 07:48:24;;;;;;;13.80;3.47;;;;;;;10.71;70.35;101025.22;5111422;27;20743;-72
2023/01/05 07:51:30;;;;;;;14.45;4.22;;;;;;;10.77;70.52;101040.63;5108432;27;20085;-71
2023/01/05 07:54:34;;;;;;;17.52;4.18;;;;;;;10.73;70.52;101038.25;5130465;27;20099;-71
2023/01/05 07:57:37;;;;;;;16.73;5.03;;;;;;;10.66;70.88;101043.72;5125485;27;20042;-71
2023/01/05 08:00:40;;;;;;;;;;;;;;;10.69;71.03;101043.59;5118600;27;20053;-71
2023/01/05 08:03:43;;;;;;;14.63;3.03;;;;;;;10.65;71.17;101051.63;5129746;27;19960;-71
2023/01/05 08:06:47;;;;;;;13.32;3.35;;;;;;;10.62;71.40;101052.63;5128917;27;20418;-71
2023/01/05 08:16:34;;;;;;;17.85;3.55;;;;;;;10.52;71.80;101059.16;5115879;27;20070;-71
2023/01/05 08:19:38;;;;;;;;;;;;;;;10.61;72.10;101056.16;5108224;28;20423;-71
2023/01/05 08:22:41;;;;;;;12.00;2.30;;;;;;;10.59;72.22;101062.38;5128261;27;20315;-71
2023/01/05 08:25:45;;;;;;;13.57;3.17;;;;;;;10.46;72.84;101068.16;5111906;27;20042;-71
2023/01/05 08:28:48;;;;;;;;;;;;;;;10.56;72.84;101065.97;5125869;27;20099;-72
2023/01/05 08:31:51;;;;;;;13.48;3.20;;;;;;;10.48;73.21;101076.75;5127877;27;19918;-73
2023/01/05 08:34:55;;;;;;;16.98;3.10;;;;;;;10.57;72.96;101075.53;5107875;28;20156;-71
2023/01/05 08:37:58;;;;;;;20.27;5.13;;;;;;;10.56;72.92;101078.19;5108031;28;20120;-71
2023/01/05 08:41:02;;;;;;;12.02;2.70;;;;;;;10.58;72.91;101090.28;5111282;27;20139;-71
2023/01/05 08:44:06;;;;;;;;;;;;;;;10.64;72.78;101081.31;5127659;27;20507;-71
2023/01/05 08:47:09;;;;;;;11.68;2.72;;;;;;;10.57;73.37;101074.69;5126473;27;20052;-71
2023/01/05 08:50:13;;;;;;;21.58;3.60;;;;;;;10.65;72.87;101080.41;5126350;27;20054;-71
2023/01/05 08:53:16;;;;;;;;;;;;;;;10.71;72.82;101083.59;5106480;28;20038;-72
2023/01/05 08:56:20;;;;;;;63.43;37.20;;;;;;;10.76;72.34;101091.25;5119202;27;19964;-72
2023/01/05 08:59:24;;;;;;;16.45;3.88;;;;;;;10.58;73.11;101086.81;5128130;27;20604;-72
2023/01/05 09:02:27;;;;;;;16.25;3.35;;;;;;;10.68;73.04;101095.97;5106066;28;20046;-72
2023/01/05 09:05:31;;;;;;;18.10;4.68;;;;;;;10.69;73.11;101100.28;5104753;28;20120;-71
2023/01/05 09:08:34;;;;;;;;;;;;;;;10.67;72.72;101107.34;5106314;28;20312;-72
2023/01/05 09:11:38;;;;;;;;;;;;;;;10.64;72.85;101115.31;5106740;28;19969;-72
2023/01/05 09:14:41;;;;;;;18.75;3.17;;;;;;;10.68;73.03;101109.88;5107558;28;19960;-72
2023/01/05 09:17:44;;;;;;;14.93;2.70;;;;;;;10.68;72.92;101116.88;5107110;28;20049;-71
2023/01/05 09:20:55;;;;;;;13.30;3.60;;;;;;;10.66;73.01;101114.34;5106274;28;20043;-71
2023/01/05 09:23:58;;;;;;;18.13;3.78;;;;;;;10.63;73.07;101124.94;5111183;28;20107;-72
2023/01/05 09:27:02;;;;;;;16.38;4.40;;;;;;;10.70;73.42;101115.06;5120190;28;20038;-72
2023/01/05 09:30:07;;;;;;;17.45;3.55;;;;;;;10.62;73.04;101114.53;5126371;27;20066;-71
2023/01/05 09:33:10;;;;;;;13.85;3.10;;;;;;;10.64;73.57;101117.94;5114093;27;20096;-72
2023/01/05 09:36:16;;;;;;;13.48;3.15;;;;;;;10.68;73.30;101124.72;5126644;27;20039;-71
2023/01/05 09:39:19;;;;;;;16.77;3.45;;;;;;;10.71;73.19;101127.22;5127426;27;20519;-72
2023/01/05 09:42:26;;;;;;;22.52;3.83;;;;;;;10.78;73.02;101123.41;5127425;28;20419;-72
2023/01/05 09:45:29;;;;;;;16.88;3.22;;;;;;;10.78;73.12;101125.19;5127437;28;20427;-71
2023/01/05 09:48:42;;;;;;;15.82;3.63;;;;;;;10.78;73.12;101131.25;5126421;27;20096;-71
2023/01/05 09:51:50;;;;;;;;;;;;;;;10.81;72.73;101120.66;5128970;27;20592;-71
2023/01/05 09:54:53;;;;;;;12.52;3.28;;;;;;;10.92;72.63;101128.91;5110181;28;20256;-71
2023/01/05 09:58:04;;;;;;;20.48;3.90;;;;;;;10.92;72.62;101144.59;5110297;28;20046;-72
2023/01/05 10:01:16;;;;;;;15.15;3.35;;;;;;;10.97;72.50;101140.94;5110312;28;20086;-71
2023/01/05 10:04:24;;;;;;;18.58;3.58;;;;;;;10.83;72.75;101155.47;5109821;28;20095;-72
2023/01/05 10:07:41;;;;;;;19.98;4.45;;;;;;;10.85;72.84;101148.41;5118952;27;20096;-72
2023/01/05 10:13:01;;;;;;;17.40;4.50;;;;;;;10.91;72.48;101142.91;5131870;27;20127;-72
2023/01/05 10:14:21;;;;;;;19.83;4.53;;;;;;;10.86;72.94;101159.72;5131361;27;20049;-71
2023/01/05 10:17:28;;;;;;;19.08;4.43;;;;;;;10.85;72.92;101143.19;5128380;27;20046;-72
2023/01/05 10:20:48;;;;;;;18.20;4.07;;;;;;;10.85;72.88;101145.78;5133082;27;20073;-72
2023/01/05 10:24:29;;;;;;;17.85;4.32;;;;;;;10.86;73.08;101160.56;5135193;27;20127;-71
2023/01/05 10:27:50;;;;;;;18.10;4.32;;;;;;;10.97;72.87;101152.22;5131094;27;20446;-72
2023/01/05 10:30:57;;;;;;;27.38;7.70;;;;;;;10.92;73.13;101159.47;5132220;27;20050;-72
2023/01/05 10:34:13;;;;;;;15.18;4.75;;;;;;;10.99;73.22;101149.56;5135014;27;20050;-71
2023/01/05 10:37:40;;;;;;;16.63;4.07;;;;;;;10.94;73.33;101157.59;5134986;27;20041;-72
2023/01/05 10:41:00;;;;;;;18.13;4.20;;;;;;;10.87;73.39;101151.78;5134877;27;20045;-72
2023/01/05 10:44:18;;;;;;;19.40;3.95;;;;;;;10.88;73.40;101157.88;5135134;27;20503;-72
2023/01/05 10:47:25;;;;;;;19.35;5.10;;;;;;;10.88;73.24;101163.97;5134234;27;20039;-72
2023/01/05 10:50:35;;;;;;;11.20;3.88;;;;;;;10.93;73.43;101148.91;5134987;27;20054;-71
2023/01/05 10:53:42;;;;;;;23.63;7.82;;;;;;;10.93;73.43;101151.53;5133099;27;20041;-72
2023/01/05 10:56:45;;;;;;;20.27;4.68;;;;;;;10.97;73.19;101161.84;5109930;28;20120;-72
2023/01/05 11:04:13;;;;;;;21.83;5.72;;;;;;;10.98;73.30;101166.19;5109484;27;20054;-72
2023/01/05 11:07:17;;;;;;;14.27;3.75;;;;;;;11.01;73.05;101168.66;5081391;28;20067;-72
2023/01/05 11:10:28;;;;;;;19.30;3.95;;;;;;;11.09;72.84;101167.41;5118495;27;20058;-72
2023/01/05 11:13:40;;;;;;;21.08;5.35;;;;;;;11.25;72.21;101167.56;5108238;28;20097;-72
2023/01/05 11:16:50;;;;;;;17.30;5.47;;;;;;;11.34;71.82;101161.94;5108532;28;20479;-72
2023/01/05 11:19:56;;;;;;;22.98;7.40;;;;;;;11.23;71.79;101169.44;5108799;28;20051;-72
2023/01/05 11:22:59;;;;;;;19.55;4.72;;;;;;;11.19;71.99;101167.84;5108778;28;20042;-72
2023/01/05 11:26:49;;;;;;;20.50;4.38;;;;;;;11.37;71.15;101181.88;5107653;28;20088;-72
2023/01/05 11:30:12;;;;;;;19.42;4.78;;;;;;;11.37;71.29;101172.25;5113878;27;20070;-72
2023/01/05 11:33:28;;;;;;;20.42;5.00;;;;;;;11.38;70.84;101162.63;5108798;28;20085;-72
2023/01/05 11:36:32;;;;;;;22.35;5.30;;;;;;;11.48;69.86;101165.69;5108725;28;20030;-72
2023/01/05 11:39:47;;;;;;;19.58;5.03;;;;;;;11.40;69.91;101164.28;5108896;28;20131;-72
2023/01/05 11:42:52;;;;;;;19.58;5.68;;;;;;;11.51;69.81;101163.75;5108354;28;20051;-72
2023/01/05 11:46:00;;;;;;;23.27;4.78;;;;;;;11.62;69.64;101165.91;5108558;28;20073;-72
2023/01/05 11:49:05;;;;;;;16.63;5.68;;;;;;;11.53;69.40;101168.94;5108587;28;20176;-72
2023/01/05 11:52:34;;;;;;;20.92;6.35;;;;;;;11.62;69.18;101173.78;5108277;28;20507;-72
2023/01/05 11:56:13;;;;;;;21.92;6.57;;;;;;;11.75;69.03;101171.44;5107896;28;20519;-72
2023/01/05 11:59:28;;;;;;;20.25;4.65;;;;;;;11.75;68.82;101177.50;5111067;27;20127;-72
2023/01/05 12:02:42;;;;;;;20.10;3.85;;;;;;;11.63;69.05;101165.81;5110644;27;20481;-72
2023/01/05 12:05:57;;;;;;;19.45;4.80;;;;;;;11.61;69.08;101172.94;5106053;28;20560;-71
2023/01/05 12:09:08;;;;;;;23.70;4.68;;;;;;;11.50;69.01;101166.47;5071884;23;20303;-71
2023/01/05 12:12:30;;;;;;;25.38;11.00;;;;;;;11.45;69.49;101171.06;5047855;28;20048;-72
2023/01/05 12:16:04;;;;;;;25.92;8.52;;;;;;;11.44;69.15;101179.84;5065159;28;20090;-72
2023/01/05 12:19:10;;;;;;;19.70;5.05;;;;;;;11.45;69.45;101174.53;5068310;28;20046;-71
2023/01/05 12:22:25;;;;;;;18.73;4.63;;;;;;;11.48;68.79;101184.00;5067443;28;20075;-71
2023/01/05 12:25:48;;;;;;;18.50;5.00;;;;;;;11.57;68.92;101183.59;5068022;28;20182;-71
2023/01/05 12:29:14;;;;;;;21.85;4.65;;;;;;;11.52;69.10;101175.97;5065081;28;20094;-71
2023/01/05 12:32:52;;;;;;;28.45;16.15;;;;;;;11.74;68.90;101188.91;5068079;28;20039;-71
2023/01/05 12:36:33;;;;;;;17.70;6.07;;;;;;;11.67;69.12;101181.41;5068505;28;20428;-71
2023/01/05 12:39:42;;;;;;;20.00;4.65;;;;;;;11.54;69.33;101208.16;5067777;28;20093;-71
2023/01/05 12:43:06;;;;;;;18.88;4.68;;;;;;;11.48;69.17;101187.47;5067481;28;20097;-74
2023/01/05 12:46:23;;;;;;;18.00;4.78;;;;;;;11.58;68.73;101196.63;5065554;28;20472;-71
2023/01/05 12:49:38;;;;;;;19.70;6.28;;;;;;;11.66;68.64;101204.13;5048750;28;20078;-72
2023/01/05 12:52:47;;;;;;;23.00;6.72;;;;;;;11.68;68.02;101199.69;5057190;28;20104;-71
2023/01/05 12:55:55;;;;;;;15.80;4.05;;;;;;;11.70;66.66;101199.59;5048485;28;20044;-73
2023/01/05 12:59:08;;;;;;;16.05;4.47;;;;;;;11.67;66.46;101205.81;5047781;28;20138;-71
2023/01/05 13:02:14;;;;;;;22.50;8.40;;;;;;;11.69;66.21;101196.13;5048656;28;20064;-71
2023/01/05 13:05:26;;;;;;;16.55;4.40;;;;;;;11.68;64.61;101199.69;5048386;28;20657;-73
2023/01/05 13:08:51;;;;;;;15.02;5.93;;;;;;;11.61;63.94;101200.88;5043974;28;20159;-76
2023/01/05 13:12:05;;;;;;;24.75;8.38;;;;;;;11.74;64.36;101196.78;5025736;28;20091;-73
2023/01/05 13:15:28;;;;;;;23.33;8.65;;;;;;;11.75;63.02;101198.47;5026387;28;20053;-70
2023/01/05 13:18:36;;;;;;;20.15;6.60;;;;;;;11.83;62.84;101203.34;5027032;28;20414;-72
2023/01/05 13:21:43;;;;;;;31.55;14.40;;;;;;;11.75;62.51;101198.47;5027287;28;20053;-73
2023/01/05 13:24:54;;;;;;;20.63;5.97;;;;;;;11.68;62.69;101194.44;5027117;28;20067;-73
2023/01/05 13:27:59;;;;;;;22.10;7.53;;;;;;;11.66;62.88;101183.19;5030057;28;20048;-73
2023/01/05 13:31:27;;;;;;;22.50;6.47;;;;;;;11.67;61.88;101190.09;5038432;28;20052;-73
2023/01/05 13:34:56;;;;;;;14.65;6.80;;;;;;;11.73;61.41;101189.81;5048847;28;20091;-73
2023/01/05 13:38:41;;;;;;;13.77;4.70;;;;;;;11.79;62.30;101194.78;5048280;28;20086;-73
2023/01/05 13:42:06;;;;;;;17.08;5.35;;;;;;;11.77;61.31;101195.75;5049686;28;20526;-73
2023/01/05 13:45:37;;;;;;;20.73;6.03;;;;;;;11.78;60.61;101194.88;5050502;28;20039;-74
2023/01/05 13:49:02;;;;;;;22.45;7.68;;;;;;;11.75;60.53;101193.22;5031445;28;20429;-74
2023/01/05 13:53:13;;;;;;;22.67;11.32;;;;;;;11.74;61.89;101188.91;5032561;28;20138;-74
2023/01/05 13:56:24;;;;;;;18.58;5.50;;;;;;;11.68;63.96;101199.69;4970019;28;20040;-74
2023/01/05 13:59:31;;;;;;;17.33;6.90;;;;;;;11.66;64.83;101200.66;5031678;28;20198;-72
2023/01/05 14:02:39;;;;;;;21.30;5.82;;;;;;;11.61;65.15;101196.50;5031518;28;20075;-73
2023/01/05 14:05:48;;;;;;;18.23;5.40;;;;;;;11.60;66.04;101196.56;5031668;28;20040;-72
2023/01/05 14:08:57;;;;;;;16.65;3.80;;;;;;;11.64;66.55;101211.19;5031135;28;20079;-71
2023/01/05 14:12:15;;;;;;;22.63;5.47;;;;;;;11.53;67.01;101214.31;5039227;28;20056;-70
2023/01/05 14:15:36;;;;;;;24.85;4.57;;;;;;;11.45;67.61;101220.81;5043444;28;20051;-70
2023/01/05 14:18:49;;;;;;;21.25;5.00;;;;;;;11.44;67.87;101224.34;5050067;28;20410;-73
2023/01/05 14:22:21;;;;;;;23.58;6.72;;;;;;;11.33;68.46;101233.53;5038483;28;20107;-73
2023/01/05 14:25:48;;;;;;;20.85;4.43;;;;;;;11.34;68.64;101235.25;5047503;28;20090;-75
2023/01/05 14:28:54;;;;;;;22.85;6.07;;;;;;;11.31;69.27;101227.50;5050160;28;20138;-73
2023/01/05 14:32:05;;;;;;;25.08;8.73;;;;;;;11.37;69.35;101210.69;5049818;28;20036;-73
2023/01/05 14:35:35;;;;;;;21.92;6.53;;;;;;;11.45;69.57;101226.91;5048342;28;20135;-73
2023/01/05 14:38:46;;;;;;;;;;;;;;;11.36;70.03;101232.56;5049664;28;20080;-74
2023/01/05 14:42:03;;;;;;;19.40;6.95;;;;;;;11.27;70.37;101232.97;5029379;28;19920;-74
2023/01/05 14:45:38;;;;;;;18.23;5.03;;;;;;;11.30;70.51;101236.31;5028591;28;20536;-73
2023/01/05 14:49:05;;;;;;;15.73;5.15;;;;;;;11.28;70.42;101245.97;5029574;28;20434;-71
2023/01/05 14:52:41;;;;;;;19.67;4.95;;;;;;;11.24;70.42;101248.81;5029459;28;20242;-73
2023/01/05 14:55:51;;;;;;;;;;;;;;;11.21;70.59;101244.56;5019852;28;20182;-73
2023/01/05 14:59:11;;;;;;;20.58;4.88;;;;;;;11.25;70.84;101253.97;5029398;28;19967;-72
2023/01/05 15:02:31;;;;;;;19.48;5.88;;;;;;;11.29;70.61;101252.91;5029238;28;20044;-72
2023/01/05 15:05:45;;;;;;;21.08;6.07;;;;;;;11.28;70.96;101253.00;5031172;28;20575;-73
2023/01/05 15:09:16;;;;;;;19.05;6.03;;;;;;;11.45;70.53;101263.56;5029492;28;20056;-71
2023/01/05 15:12:38;;;;;;;25.77;8.18;;;;;;;11.34;70.38;101263.19;5028270;28;20470;-71
2023/01/05 15:15:59;;;;;;;27.70;9.05;;;;;;;11.28;70.47;101266.91;5029733;28;20138;-71
2023/01/05 15:19:31;;;;;;;18.27;5.25;;;;;;;11.21;70.63;101260.25;5038661;28;20055;-72
2023/01/05 15:22:46;;;;;;;19.90;5.13;;;;;;;11.22;70.84;101258.50;5049462;28;20043;-72
2023/01/05 15:26:16;;;;;;;21.75;5.80;;;;;;;11.27;70.87;101259.16;5048766;28;20056;-71
2023/01/05 15:29:44;;;;;;;22.17;5.10;;;;;;;11.20;70.95;101255.94;5042442;28;20470;-71
2023/01/05 15:32:56;;;;;;;22.50;5.45;;;;;;;11.33;70.82;101257.13;5039335;28;20048;-71
2023/01/05 15:36:03;;;;;;;21.87;5.60;;;;;;;11.40;70.50;101249.84;5043497;28;20040;-71
2023/01/05 15:39:27;;;;;;;27.10;12.57;;;;;;;11.39;70.39;101256.84;5045218;28;20048;-71
2023/01/05 15:42:44;;;;;;;27.10;9.60;;;;;;;11.54;69.88;101262.31;5048100;28;20433;-71
2023/01/05 15:45:52;;;;;;;16.15;6.25;;;;;;;11.40;70.83;101266.41;5047343;28;20047;-71
2023/01/05 15:48:55;;;;;;;14.88;5.13;;;;;;;11.56;70.93;101263.09;5047725;28;20087;-72
2023/01/05 15:52:01;;;;;;;18.42;5.10;;;;;;;11.27;70.86;101275.69;5047968;28;20075;-72
2023/01/05 15:55:34;;;;;;;21.45;5.25;;;;;;;11.44;70.55;101263.63;5047591;28;20190;-71
2023/01/05 15:58:43;;;;;;;16.02;4.32;;;;;;;11.42;71.44;101268.94;5046191;28;20051;-71
2023/01/05 16:01:49;;;;;;;18.67;4.78;;;;;;;11.39;71.37;101269.94;5047333;28;20079;-72
2023/01/05 16:05:14;;;;;;;19.55;4.80;;;;;;;11.52;71.23;101258.91;5047758;28;20449;-71
2023/01/05 16:08:23;;;;;;;18.17;4.20;;;;;;;11.41;72.09;101265.47;5048650;28;20071;-74
2023/01/05 16:11:32;;;;;;;20.27;4.07;;;;;;;11.41;73.07;101268.09;5028994;28;20183;-71
2023/01/05 16:14:43;;;;;;;19.05;7.13;;;;;;;11.36;72.16;101264.00;5028295;28;20592;-71
2023/01/05 16:17:51;;;;;;;24.20;4.60;;;;;;;11.16;72.30;101277.91;5028923;28;20063;-70
2023/01/05 16:20:56;;;;;;;23.73;8.00;;;;;;;11.05;73.02;101265.28;5028330;28;20275;-70
2023/01/05 16:24:06;;;;;;;22.42;5.90;;;;;;;10.90;74.02;101272.00;5029487;28;20513;-70
2023/01/05 16:27:12;;;;;;;18.10;4.32;;;;;;;10.82;74.91;101274.13;5027593;28;20087;-72
2023/01/05 16:30:41;;;;;;;24.27;4.63;;;;;;;10.70;75.64;101272.00;5028165;28;20039;-71
2023/01/05 16:33:44;;;;;;;21.20;5.43;;;;;;;10.81;75.37;101272.38;5030458;28;20037;-71
2023/01/05 16:37:05;;;;;;;27.35;5.68;;;;;;;10.73;75.71;101269.25;5042932;28;20071;-73
2023/01/05 16:40:19;;;;;;;19.20;5.00;;;;;;;10.96;75.51;101273.53;5046637;28;20098;-71
2023/01/05 16:43:35;;;;;;;19.02;6.00;;;;;;;11.12;75.11;101276.34;5047522;28;20079;-70
2023/01/05 16:46:40;;;;;;;21.15;5.50;;;;;;;11.18;75.39;101276.09;5047517;28;20571;-71
2023/01/05 16:49:43;;;;;;;22.65;6.20;;;;;;;11.13;75.45;101271.03;5044796;28;20585;-70
2023/01/05 16:53:10;;;;;;;26.05;7.88;;;;;;;11.17;75.15;101275.25;5042663;28;20098;-70
2023/01/05 16:56:43;;;;;;;18.77;4.15;;;;;;;10.87;76.76;101274.75;5036179;28;20806;-70
2023/01/05 17:04:14;;;;;;;25.02;4.60;;;;;;;10.77;77.93;101281.28;5026887;28;20150;-71
2023/01/05 17:07:19;;;;;;;17.92;5.75;;;;;;;11.01;77.58;101286.41;5039180;28;20083;-70
2023/01/05 17:10:26;;;;;;;21.48;6.13;;;;;;;11.01;77.81;101283.78;5047245;28;20142;-71
2023/01/05 17:13:51;;;;;;;23.88;8.80;;;;;;;10.91;78.72;101288.56;5032303;28;20095;-71
2023/01/05 17:16:56;;;;;;;31.45;8.07;;;;;;;10.88;79.35;101288.69;5027613;28;20040;-71
2023/01/05 17:20:03;;;;;;;25.00;7.60;;;;;;;10.92;79.91;101285.91;5030165;28;20052;-71
2023/01/05 17:23:51;;;;;;;19.33;6.05;;;;;;;11.11;79.19;101290.38;5047228;28;20478;-71
2023/01/05 17:26:58;;;;;;;25.00;5.07;;;;;;;10.95;80.60;101292.78;5027929;28;20060;-70
2023/01/05 17:30:24;;;;;;;22.98;5.10;;;;;;;10.66;82.15;101278.28;5025567;28;20055;-71
2023/01/05 17:33:29;;;;;;;25.10;3.83;;;;;;;10.78;83.16;101277.75;5024930;28;20040;-71
2023/01/05 17:36:37;;;;;;;23.80;6.28;;;;;;;10.33;85.69;101291.75;5046825;28;20574;-72
2023/01/05 17:39:40;;;;;;;28.13;6.80;;;;;;;10.20;86.61;101285.28;5029374;28;20048;-71
2023/01/05 17:42:45;;;;;;;28.77;6.32;;;;;;;10.44;86.59;101280.91;5033300;28;20048;-72
2023/01/05 17:45:50;;;;;;;27.48;5.47;;;;;;;10.34;87.19;101275.19;5046104;28;20091;-71
2023/01/05 17:48:54;;;;;;;19.73;4.22;;;;;;;10.56;86.66;101277.78;5046947;28;20048;-71
2023/01/05 17:51:57;;;;;;;21.83;5.45;;;;;;;10.75;85.66;101282.25;5046268;28;20117;-71
2023/01/05 17:55:00;;;;;;;;;;;;;;;10.71;86.54;101276.31;5040948;28;20040;-70
2023/01/05 17:58:09;;;;;;;28.98;12.85;;;;;;;10.75;86.18;101271.78;5045899;28;20002;-71
2023/01/05 18:01:13;;;;;;;30.30;11.23;;;;;;;10.69;86.35;101263.31;5037087;28;20072;-71
2023/01/05 18:04:16;;;;;;;25.55;9.52;;;;;;;10.78;86.47;101267.28;5030989;28;20088;-70
2023/01/05 18:07:20;;;;;;;;;;;;;;;10.74;86.49;101260.50;5042331;28;20052;-70
2023/01/05 18:10:28;;;;;;;19.30;4.20;;;;;;;10.64;87.20;101260.00;5030037;28;19920;-70
2023/01/05 18:13:32;;;;;;;23.67;5.07;;;;;;;10.58;87.98;101254.19;5032617;28;20099;-70
2023/01/05 18:16:35;;;;;;;25.92;6.63;;;;;;;10.52;88.54;101259.66;5035102;28;20048;-70
2023/01/05 18:19:39;;;;;;;21.90;6.43;;;;;;;10.36;89.44;101259.41;5035400;28;20083;-71
2023/01/05 18:22:42;;;;;;;17.52;4.32;;;;;;;10.40;89.25;101256.63;5035104;28;20513;-71
2023/01/05 18:25:45;;;;;;;;;;;;;;;10.34;89.80;101251.66;5041386;28;20461;-71
2023/01/05 18:28:51;;;;;;;22.13;5.03;;;;;;;10.42;89.75;101248.72;5034291;28;19920;-70
2023/01/05 18:31:54;;;;;;;19.20;4.85;;;;;;;10.41;89.52;101258.34;5050898;28;20048;-70
2023/01/05 18:34:57;;;;;;;;;;;;;;;10.40;89.79;101255.75;5048340;28;20087;-71
2023/01/05 18:38:03;;;;;;;20.83;5.93;;;;;;;10.42;89.94;101259.19;5048773;28;19923;-72
2023/01/05 18:41:07;;;;;;;24.23;7.30;;;;;;;10.51;88.99;101257.97;5054609;28;20051;-71
2023/01/05 18:44:11;;;;;;;17.33;5.30;;;;;;;10.47;89.41;101254.63;5054384;28;20084;-71
2023/01/05 18:47:16;;;;;;;22.77;5.88;;;;;;;10.44;89.47;101255.59;5054808;28;20509;-72
2023/01/05 18:50:19;;;;;;;20.25;4.18;;;;;;;10.33;90.57;101255.16;5053567;28;20091;-72
2023/01/05 18:53:24;;;;;;;20.35;3.67;;;;;;;10.36;90.64;101254.19;5054299;28;20052;-71
2023/01/05 18:56:30;;;;;;;26.75;6.13;;;;;;;10.30;91.13;101260.50;5054507;28;20556;-72
2023/01/05 18:59:33;;;;;;;21.33;4.75;;;;;;;10.36;91.07;101252.41;5053614;28;20098;-71
2023/01/05 19:02:40;;;;;;;17.83;4.32;;;;;;;10.33;91.13;101247.31;5054614;28;20047;-71
2023/01/05 19:05:44;;;;;;;25.38;7.30;;;;;;;10.42;90.87;101248.72;5053149;28;20048;-71
2023/01/05 19:08:48;;;;;;;22.92;5.43;;;;;;;10.32;91.16;101248.25;5053876;28;20114;-72
2023/01/05 19:11:51;;;;;;;17.45;5.28;;;;;;;10.34;90.73;101251.66;5053025;28;20072;-72
2023/01/05 19:14:54;;;;;;;;;;;;;;;10.36;90.97;101243.72;5053809;28;20477;-72
2023/01/05 19:17:57;;;;;;;22.13;8.30;;;;;;;10.31;91.51;101241.31;5051615;28;20017;-72
2023/01/05 19:21:00;;;;;;;24.52;7.88;;;;;;;10.33;91.23;101244.69;5051500;28;20075;-72
2023/01/05 19:24:06;;;;;;;15.70;4.10;;;;;;;10.27;91.45;101244.94;5052056;28;20539;-72
2023/01/05 19:27:09;;;;;;;28.20;5.75;;;;;;;10.25;91.81;101247.59;5035371;28;20103;-73
2023/01/05 19:30:13;;;;;;;;;;;;;;;10.30;91.65;101239.59;5032570;28;20569;-72
2023/01/05 19:33:17;;;;;;;22.38;8.80;;;;;;;10.33;91.60;101247.31;5036987;28;19920;-73
2023/01/05 19:36:22;;;;;;;29.42;8.50;;;;;;;10.18;92.61;101245.31;5035179;28;20572;-72
2023/01/05 19:39:26;;;;;;;21.70;5.90;;;;;;;10.17;92.92;101243.56;5034022;28;20048;-72
2023/01/05 19:42:30;;;;;;;18.92;5.10;;;;;;;10.27;92.29;101244.94;5034046;28;20142;-75
2023/01/05 19:45:33;;;;;;;17.75;5.68;;;;;;;10.28;92.07;101240.59;5033861;28;20087;-74
2023/01/05 19:48:38;;;;;;;23.38;8.63;;;;;;;10.19;92.47;101236.53;5033845;28;20084;-73
2023/01/05 19:51:41;;;;;;;54.30;18.77;;;;;;;10.09;93.31;101246.50;5033707;28;20192;-73
2023/01/05 19:54:44;;;;;;;65.68;38.70;;;;;;;10.15;93.26;101233.19;5033794;28;20121;-71
2023/01/05 19:57:47;;;;;;;;;;;;;;;9.94;94.86;101237.47;5034091;28;20103;-72
2023/01/05 20:00:50;;;;;;;48.97;25.70;;;;;;;9.62;96.61;101240.44;5033437;28;20007;-71
2023/01/05 20:03:55;;;;;;;39.10;22.20;;;;;;;9.94;95.63;101231.41;5033545;28;20318;-72
2023/01/05 20:07:00;;;;;;;22.88;8.45;;;;;;;10.11;94.12;101222.91;5033256;28;20470;-74
2023/01/05 20:10:04;;;;;;;21.02;5.15;;;;;;;10.08;93.74;101209.97;5033342;28;20103;-73
2023/01/05 20:13:07;;;;;;;;;;;;;;;10.18;93.34;101213.94;5033644;28;20045;-73
2023/01/05 20:16:12;;;;;;;22.00;4.60;;;;;;;10.23;93.06;101218.03;5033356;28;19920;-72
2023/01/05 20:19:23;;;;;;;20.25;5.78;;;;;;;10.17;93.22;101215.66;5031919;28;20457;-72